Flight Track Log - Related Links

Times and Time Zones

All times are in EDT time to prevent confusion due to time zone crossing. See the N31KE flight status page for this flight to view local times or setup timezone preferences in your user account.

Time Position Orientation Groundspeed Altitude Reporting Facility
EDT Latitude Longitude Course Direction KTS MPH feet Rate Location/Type
Thu 07:05:44 PM 36.3075 -80.1447 329° Northwest 97 112 4,600  Level Indianapolis Center
Thu 07:06:46 PM 36.3300 -80.1617 329° Northwest 96 110 5,000 435 Climbing Indianapolis Center
Thu 07:07:48 PM 36.3581 -80.1825 329° Northwest 98 113 5,500 387 Climbing Indianapolis Center
Thu 07:08:50 PM 36.3811 -80.1969 333° Northwest 98 113 5,800 293 Climbing Indianapolis Center
Thu 07:09:51 PM 36.4047 -80.2128 332° Northwest 98 113 6,100 341 Climbing Indianapolis Center
Thu 07:10:53 PM 36.4322 -80.2331 329° Northwest 98 113 6,500 290 Climbing Indianapolis Center
Thu 07:11:55 PM 36.4578 -80.2500 332° Northwest 101 116 6,700 48 Climbing Indianapolis Center
Thu 07:12:57 PM 36.4853 -80.2669 334° Northwest 106 122 6,600 -48 Descending Indianapolis Center
Thu 07:13:59 PM 36.5133 -80.2864 331° Northwest 111 128 6,600 -50 Level Indianapolis Center
Thu 07:14:56 PM 36.5417 -80.3075 329° Northwest 124 143 6,500  Descending Atlanta Center
Thu 07:15:56 PM 36.5717 -80.3319 327° Northwest 118 136 6,600  Climbing Atlanta Center
Thu 07:16:56 PM 36.6014 -80.3486 336° Northwest 113 130 6,500 -100 Descending Atlanta Center
Thu 07:17:56 PM 36.6311 -80.3681 332° Northwest 118 136 6,400  Descending Atlanta Center
Thu 07:18:56 PM 36.6567 -80.3850 332° Northwest 124 143 6,500  Climbing Atlanta Center
Thu 07:19:56 PM 36.6844 -80.4044 331° Northwest 119 137 6,400 -50 Descending Atlanta Center
Thu 07:20:56 PM 36.7122 -80.4264 328° Northwest 119 137 6,400 100 Level Atlanta Center
Thu 07:21:56 PM 36.7397 -80.4433 334° Northwest 119 137 6,600 100 Climbing Atlanta Center
Thu 07:22:56 PM 36.7675 -80.4628 331° Northwest 114 131 6,600 -50 Level Atlanta Center
Thu 07:23:56 PM 36.7950 -80.4822 330° Northwest 114 131 6,500 50 Descending Atlanta Center
Thu 07:24:56 PM 36.8206 -80.4992 332° Northwest 109 125 6,700  Climbing Atlanta Center
Thu 07:25:56 PM 36.8461 -80.5189 328° Northwest 109 125 6,500 -100 Descending Atlanta Center
Thu 07:26:56 PM 36.8717 -80.5333 336° Northwest 109 125 6,500 50 Level Atlanta Center
Thu 07:27:56 PM 36.8972 -80.5531 328° Northwest 109 125 6,600  Climbing Atlanta Center
Thu 07:28:56 PM 36.9247 -80.5700 334° Northwest 109 125 6,500  Descending Atlanta Center
Thu 07:29:56 PM 36.9503 -80.5894 329° Northwest 109 125 6,600  Climbing Atlanta Center
Thu 07:30:57 PM 36.9822 -80.6117 331° Northwest 109 125 6,500 -50 Descending Atlanta Center
Thu 07:31:56 PM 37.0078 -80.6314 328° Northwest 109 125 6,500  Level Atlanta Center
Thu 07:32:56 PM 37.0353 -80.6483 334° Northwest 109 125 6,500 113 Level Atlanta Center
Thu 07:34:35 PM 37.0792 -80.6761 333° Northwest 112 129 6,800 75 Climbing Indianapolis Center
Thu 07:35:37 PM 37.1100 -80.6983 330° Northwest 111 128 6,700 -98 Descending Indianapolis Center
Thu 07:36:38 PM 37.1369 -80.7183 329° Northwest 113 130 6,600 -98 Descending Indianapolis Center
Thu 07:37:40 PM 37.1644 -80.7378 331° Northwest 115 132 6,500 -48 Descending Indianapolis Center
Thu 07:38:42 PM 37.1908 -80.7544 333° Northwest 113 130 6,500 48 Level Indianapolis Center
Thu 07:39:44 PM 37.2208 -80.7750 331° Northwest 108 124 6,600 48 Climbing Indianapolis Center
Thu 07:40:46 PM 37.2461 -80.7936 330° Northwest 107 123 6,600 -65 Level Indianapolis Center
Thu 07:42:00 PM 37.2813 -80.8181 331° Northwest  Level Estimated
Thu 07:42:49 PM 37.3017 -80.8319 331° Northwest 106 122 6,400  Level Indianapolis Center
Thu 07:43:51 PM 37.3267 -80.8517 328° Northwest 108 124 6,600 97 Climbing Indianapolis Center
Thu 07:44:53 PM 37.3525 -80.8686 332° Northwest 108 124 6,600  Level Indianapolis Center
Thu 07:45:55 PM 37.3783 -80.8867 331° Northwest 109 125 6,600 49 Level Indianapolis Center
Thu 07:46:56 PM 37.4094 -80.9086 331° Northwest 108 124 6,700  Climbing Indianapolis Center
Thu 07:47:58 PM 37.4361 -80.9275 331° Northwest 111 128 6,600 -48 Descending Indianapolis Center
Thu 07:49:00 PM 37.4631 -80.9467 331° Northwest 113 130 6,600  Level Indianapolis Center
Thu 07:50:02 PM 37.4953 -80.9692 331° Northwest 114 131 6,600  Level Indianapolis Center
Thu 07:51:04 PM 37.5189 -80.9869 329° Northwest 105 121 6,600  Level Indianapolis Center
Thu 07:52:05 PM 37.5467 -81.0053 332° Northwest 111 128 6,600  Level Indianapolis Center
Thu 07:53:07 PM 37.5711 -81.0233 330° Northwest 107 123 6,600  Level Indianapolis Center
Thu 07:54:09 PM 37.6022 -81.0442 332° Northwest 108 124 6,600  Level Indianapolis Center
Thu 07:55:11 PM 37.6256 -81.0614 330° Northwest 102 117 6,600  Level Indianapolis Center
Thu 07:56:12 PM 37.6508 -81.0789 331° Northwest 105 121 6,600 -49 Level Indianapolis Center
Thu 07:57:14 PM 37.6803 -81.1000 330° Northwest 106 122 6,500  Descending Indianapolis Center
Thu 07:58:16 PM 37.7056 -81.1169 332° Northwest 106 122 6,600 97 Climbing Indianapolis Center
Thu 07:59:18 PM 37.7292 -81.1331 332° Northwest 100 115 6,700  Climbing Indianapolis Center
Thu 08:00:19 PM 37.7544 -81.1517 330° Northwest 105 121 6,600 -98 Descending Indianapolis Center
Thu 08:01:21 PM 37.7858 -81.1733 331° Northwest 110 127 6,500 -290 Descending Indianapolis Center
Thu 08:02:23 PM 37.8128 -81.1939 329° Northwest 115 132 6,000 -532 Descending Indianapolis Center
Thu 08:03:25 PM 37.8428 -81.2131 333° Northwest 125 144 5,400 -683 Descending Indianapolis Center
Thu 08:04:26 PM 37.8753 -81.2350 332° Northwest 131 151 4,600 -439 Descending Indianapolis Center
Thu 08:05:28 PM 37.9111 -81.2606 331° Northwest 125 144 4,500 -97 Descending Indianapolis Center
Thu 08:06:30 PM 37.9367 -81.2797 329° Northwest 112 129 4,400  Descending Indianapolis Center
Thu 08:07:31 PM 37.9672 -81.2886 347° North 111 128 4,500 98 Climbing Indianapolis Center
Thu 08:08:33 PM 37.9969 -81.3011 342° North 112 129 4,600  Climbing Indianapolis Center
Thu 08:10:00 PM 38.0582 -81.3476 329° Northwest  Level FlightAware Approximate
Thu 08:10:36 PM 38.0556 -81.3200 329° Northwest 110 127 4,500  Level Indianapolis Center
Thu 08:11:38 PM 38.0858 -81.3314 344° North 112 129 4,400 -194 Descending Indianapolis Center
Thu 08:12:40 PM 38.1153 -81.3497 334° Northwest 115 132 4,100 -488 Descending Indianapolis Center
Thu 08:13:41 PM 38.1533 -81.3792 329° Northwest 127 146 3,400 -488 Descending Indianapolis Center
Thu 08:14:43 PM 38.1828 -81.4008 330° Northwest 126 145 3,100 -339 Descending Indianapolis Center
Thu 08:15:45 PM 38.2133 -81.4214 332° Northwest 125 144 2,700 -293 Descending Indianapolis Center
Thu 08:16:46 PM 38.2422 -81.4428 330° Northwest 122 140 2,500 -98 Descending Indianapolis Center
Thu 08:17:48 PM 38.2681 -81.4636 328° Northwest 117 135 2,500  Level Indianapolis Center
Thu 08:18:50 PM 38.2931 -81.4836 328° Northwest 111 128 2,500  Level Indianapolis Center
Thu 08:19:51 PM 38.3181 -81.5058 325° Northwest 109 125 2,500 -195 Level Indianapolis Center
Thu 08:20:53 PM 38.3411 -81.5300 321° Northwest 108 124 2,100 -339 Descending Indianapolis Center
Thu 08:21:55 PM 38.3639 -81.5597 314° West 102 117 1,800 -244 Descending Indianapolis Center
Thu 08:22:56 PM 38.3783 -81.5733 324° Northwest 84 97 1,600 -244 Descending Indianapolis Center
Thu 08:23:58 PM 38.3900 -81.5856 321° Northwest 75 86 1,300 -290 Descending Indianapolis Center

Login

Don't have an account? Register now (free) for customized features, flight alerts, and more!